createdAt,value
2018-12-30T00:00:00.257Z,6.03
2018-12-30T00:02:14.972Z,4.63
2018-12-30T00:04:29.711Z,5.60
2018-12-30T00:06:44.946Z,4.27
2018-12-30T00:08:59.796Z,7.87
2018-12-30T00:11:14.553Z,6.63
2018-12-30T00:13:29.433Z,2.50
2018-12-30T00:15:44.305Z,3.93
2018-12-30T00:17:59.268Z,4.00
2018-12-30T00:20:14.333Z,6.70
2018-12-30T00:22:29.224Z,5.40
2018-12-30T00:24:44.198Z,8.40
2018-12-30T00:26:58.921Z,9.07
2018-12-30T00:29:13.708Z,6.07
2018-12-30T00:31:28.573Z,8.73
2018-12-30T00:33:43.397Z,8.63
2018-12-30T00:35:58.290Z,10.17
2018-12-30T00:38:13.274Z,9.13
2018-12-30T00:40:28.076Z,6.57
2018-12-30T00:42:43.056Z,6.47
2018-12-30T00:44:57.958Z,10.20
2018-12-30T00:47:13.032Z,5.27
2018-12-30T00:49:27.908Z,5.53
2018-12-30T00:51:42.712Z,19.13
2018-12-30T00:53:57.900Z,6.83
2018-12-30T00:56:12.563Z,7.10
2018-12-30T00:58:27.548Z,6.33
2018-12-30T01:00:42.832Z,6.97
2018-12-30T01:02:57.484Z,10.63
2018-12-30T01:05:12.506Z,9.80
2018-12-30T01:07:27.496Z,3.70
2018-12-30T01:09:42.512Z,7.20
2018-12-30T01:11:57.728Z,13.57
2018-12-30T01:14:12.646Z,5.00
2018-12-30T01:16:27.613Z,12.93
2018-12-30T01:18:42.725Z,5.10
2018-12-30T01:20:57.648Z,7.80
2018-12-30T01:23:12.705Z,5.73
2018-12-30T01:25:27.580Z,18.23
2018-12-30T01:27:42.629Z,14.37
2018-12-30T01:29:57.432Z,7.50
2018-12-30T01:32:12.500Z,10.17
2018-12-30T01:34:27.468Z,17.60
2018-12-30T01:36:42.092Z,10.63
2018-12-30T01:38:56.243Z,19.27
2018-12-30T01:41:11.253Z,20.87
2018-12-30T01:43:26.469Z,6.53
2018-12-30T01:45:40.981Z,22.00
2018-12-30T01:47:56.066Z,10.80
2018-12-30T01:50:10.195Z,16.23
2018-12-30T01:52:25.341Z,30.40
2018-12-30T01:54:40.409Z,14.10
2018-12-30T01:56:55.340Z,24.23
2018-12-30T01:59:10.336Z,16.90
2018-12-30T02:01:25.296Z,24.23
2018-12-30T02:03:39.861Z,17.77
2018-12-30T02:05:54.983Z,29.20
2018-12-30T02:08:09.960Z,19.80
2018-12-30T02:10:24.864Z,27.03
2018-12-30T02:12:39.796Z,24.43
2018-12-30T02:14:54.758Z,28.27
2018-12-30T02:17:09.719Z,23.97
2018-12-30T02:19:24.660Z,17.30
2018-12-30T02:21:41.225Z,31.53
2018-12-30T02:23:55.520Z,28.10
2018-12-30T02:26:10.449Z,19.87
2018-12-30T02:28:25.301Z,29.03
2018-12-30T02:30:40.021Z,28.23
2018-12-30T02:32:54.889Z,31.80
2018-12-30T02:35:09.664Z,24.47
2018-12-30T02:37:23.815Z,35.43
2018-12-30T02:39:38.833Z,32.67
2018-12-30T02:41:53.750Z,32.90
2018-12-30T02:44:08.577Z,33.33
2018-12-30T02:46:23.429Z,22.50
2018-12-30T02:48:38.448Z,27.80
2018-12-30T02:50:53.341Z,31.83
2018-12-30T02:53:08.193Z,21.33
2018-12-30T02:55:23.058Z,28.00
2018-12-30T02:57:37.992Z,24.20
2018-12-30T02:59:52.688Z,30.93
2018-12-30T03:02:07.572Z,23.03
2018-12-30T03:04:22.531Z,31.33
2018-12-30T03:06:37.564Z,25.77
2018-12-30T03:11:39.474Z,30.30
2018-12-30T03:13:54.440Z,27.87
2018-12-30T03:16:09.404Z,38.80
2018-12-30T03:18:24.403Z,28.40
2018-12-30T03:20:39.827Z,36.37
2018-12-30T03:22:54.413Z,37.07
2018-12-30T03:25:09.177Z,34.17
2018-12-30T03:27:24.057Z,38.97
2018-12-30T03:29:38.992Z,27.60
2018-12-30T03:31:53.835Z,37.73
2018-12-30T03:34:08.777Z,28.97
2018-12-30T03:36:23.508Z,35.50
2018-12-30T03:38:38.310Z,26.47
2018-12-30T03:40:52.461Z,40.50
2018-12-30T03:43:07.312Z,35.97
2018-12-30T03:45:22.009Z,46.00
2018-12-30T03:47:37.177Z,34.40
2018-12-30T03:49:52.500Z,34.63
2018-12-30T03:52:08.629Z,36.03
2018-12-30T03:54:23.246Z,36.53
2018-12-30T03:56:38.280Z,28.53
2018-12-30T03:58:53.312Z,37.87
2018-12-30T04:01:08.412Z,37.03
2018-12-30T04:03:23.529Z,33.13
2018-12-30T04:05:38.241Z,30.93
2018-12-30T04:07:52.401Z,38.30
2018-12-30T04:10:07.200Z,37.30
2018-12-30T04:12:22.192Z,41.50
2018-12-30T04:14:37.476Z,29.97
2018-12-30T04:16:52.264Z,42.17
2018-12-30T04:19:07.240Z,46.77
2018-12-30T04:21:21.744Z,46.50
2018-12-30T04:23:36.731Z,34.23
2018-12-30T04:25:51.760Z,42.40
2018-12-30T04:28:06.375Z,57.03
2018-12-30T04:30:21.024Z,34.13
2018-12-30T04:32:35.980Z,41.70
2018-12-30T04:34:51.081Z,44.83
2018-12-30T04:37:06.042Z,46.77
2018-12-30T04:39:20.936Z,36.00
2018-12-30T04:41:35.705Z,51.53
2018-12-30T04:43:50.565Z,35.37
2018-12-30T04:46:05.428Z,48.90
2018-12-30T04:48:20.455Z,39.40
2018-12-30T04:50:35.480Z,43.73
2018-12-30T04:52:50.689Z,33.00
2018-12-30T04:55:05.420Z,44.43
2018-12-30T04:57:20.184Z,36.17
2018-12-30T04:59:35.189Z,32.13
2018-12-30T05:01:50.233Z,62.87
2018-12-30T05:04:04.997Z,48.10
2018-12-30T05:06:19.193Z,27.20
2018-12-30T05:08:33.537Z,31.63
2018-12-30T05:10:48.176Z,40.13
2018-12-30T05:13:02.390Z,25.50
2018-12-30T05:15:17.681Z,28.33
2018-12-30T05:17:32.343Z,25.77
2018-12-30T05:19:46.581Z,26.57
2018-12-30T05:22:01.773Z,55.70
2018-12-30T05:24:16.788Z,45.70
2018-12-30T05:26:31.549Z,33.17
2018-12-30T05:28:46.400Z,31.23
2018-12-30T05:31:01.376Z,37.00
2018-12-30T05:33:16.309Z,34.53
2018-12-30T05:35:31.577Z,31.10
2018-12-30T05:37:46.289Z,34.20
2018-12-30T05:40:01.133Z,36.60
2018-12-30T05:42:16.157Z,32.23
2018-12-30T05:44:30.908Z,29.17
2018-12-30T05:46:45.913Z,29.50
2018-12-30T05:49:01.013Z,30.87
2018-12-30T05:51:16.263Z,39.17
2018-12-30T05:53:30.880Z,21.13
2018-12-30T05:55:45.208Z,39.27
2018-12-30T05:58:00.052Z,29.20
2018-12-30T06:00:14.189Z,21.50
2018-12-30T06:02:29.037Z,30.57
2018-12-30T06:04:43.812Z,31.87
2018-12-30T06:06:58.645Z,28.90
2018-12-30T06:09:13.496Z,37.07
2018-12-30T06:11:28.397Z,22.43
2018-12-30T06:13:43.633Z,33.07
2018-12-30T06:15:58.281Z,36.00
2018-12-30T06:18:13.432Z,35.97
2018-12-30T06:20:28.788Z,34.07
2018-12-30T06:22:49.475Z,24.60
2018-12-30T06:25:00.424Z,41.70
2018-12-30T06:27:15.369Z,38.83
2018-12-30T06:29:30.220Z,28.73
2018-12-30T06:31:45.147Z,40.47
2018-12-30T06:34:00.162Z,36.27
2018-12-30T06:36:14.996Z,45.50
2018-12-30T06:41:09.881Z,29.70
2018-12-30T06:43:25.103Z,26.87
2018-12-30T06:45:39.888Z,33.60
2018-12-30T06:47:53.960Z,22.93
2018-12-30T06:50:08.977Z,39.60
2018-12-30T06:52:24.265Z,31.30
2018-12-30T06:54:39.028Z,22.63
2018-12-30T06:56:54.300Z,37.73
2018-12-30T06:59:08.893Z,24.50
2018-12-30T07:01:23.980Z,26.03
2018-12-30T07:03:38.936Z,29.30
2018-12-30T07:05:53.637Z,29.17
2018-12-30T07:08:08.689Z,37.73
2018-12-30T07:10:23.884Z,30.70
2018-12-30T07:12:38.708Z,17.30
2018-12-30T07:14:53.784Z,19.33
2018-12-30T07:17:08.148Z,27.57
2018-12-30T07:19:22.712Z,28.93
2018-12-30T07:21:37.656Z,28.30
2018-12-30T07:23:52.437Z,15.90
2018-12-30T07:26:06.588Z,25.37
2018-12-30T07:28:21.604Z,36.63
2018-12-30T07:30:36.449Z,22.17
2018-12-30T07:32:51.624Z,18.97
2018-12-30T07:35:06.264Z,33.90
2018-12-30T07:37:21.126Z,28.17
2018-12-30T07:39:36.132Z,23.97
2018-12-30T07:41:51.059Z,40.37
2018-12-30T07:44:05.952Z,30.13
2018-12-30T07:46:20.809Z,23.70
2018-12-30T07:48:35.912Z,23.50
2018-12-30T07:50:50.873Z,20.63
2018-12-30T07:53:13.477Z,33.20
2018-12-30T07:55:22.364Z,20.73
2018-12-30T07:57:37.004Z,19.87
2018-12-30T07:59:51.905Z,10.43
2018-12-30T08:02:06.886Z,16.27
2018-12-30T08:04:21.805Z,21.87
2018-12-30T08:06:36.888Z,25.50
2018-12-30T08:08:51.493Z,22.03
2018-12-30T08:11:05.964Z,34.57
2018-12-30T08:13:21.065Z,20.93
2018-12-30T08:15:36.064Z,16.77
2018-12-30T08:17:51.306Z,15.30
2018-12-30T08:20:06.020Z,29.83
2018-12-30T08:22:20.993Z,16.00
2018-12-30T08:24:36.304Z,19.43
2018-12-30T08:26:51.075Z,10.60
2018-12-30T08:29:06.041Z,26.77
2018-12-30T08:31:20.938Z,14.30
2018-12-30T08:33:35.783Z,25.73
2018-12-30T08:35:50.632Z,19.33
2018-12-30T08:38:05.856Z,18.67
2018-12-30T08:40:20.545Z,22.63
2018-12-30T08:42:35.249Z,24.87
2018-12-30T08:44:50.232Z,12.40
2018-12-30T08:47:05.472Z,12.57
2018-12-30T08:49:19.975Z,20.43
2018-12-30T08:51:35.275Z,13.07
2018-12-30T08:53:49.781Z,18.90
2018-12-30T08:56:04.854Z,12.87
2018-12-30T08:58:19.729Z,21.27
2018-12-30T09:00:34.676Z,16.63
2018-12-30T09:02:50.024Z,14.53
2018-12-30T09:05:04.681Z,18.43
2018-12-30T09:07:19.439Z,34.50
2018-12-30T09:09:34.422Z,14.10
2018-12-30T09:11:49.376Z,11.63
2018-12-30T09:14:04.216Z,15.17
2018-12-30T09:16:18.885Z,21.03
2018-12-30T09:18:33.921Z,14.87
2018-12-30T09:20:48.845Z,22.50
2018-12-30T09:23:03.520Z,13.80
2018-12-30T09:25:18.380Z,18.60
2018-12-30T09:27:33.289Z,16.30
2018-12-30T09:29:48.180Z,13.83
2018-12-30T09:32:02.961Z,26.83
2018-12-30T09:34:17.797Z,23.47
2018-12-30T09:36:32.901Z,12.60
2018-12-30T09:38:47.716Z,17.57
2018-12-30T09:41:02.732Z,7.00
2018-12-30T09:43:17.284Z,15.70
2018-12-30T09:45:32.549Z,12.10
2018-12-30T09:47:47.045Z,17.30
2018-12-30T09:50:02.017Z,8.27
2018-12-30T09:52:16.981Z,15.37
2018-12-30T09:54:31.874Z,19.10
2018-12-30T09:56:46.976Z,16.85
2018-12-30T09:59:01.596Z,15.60
2018-12-30T10:01:16.580Z,25.50
2018-12-30T10:03:31.225Z,20.77
2018-12-30T10:05:46.060Z,16.87
2018-12-30T10:08:00.908Z,9.57
2018-12-30T10:10:15.731Z,17.50
2018-12-30T10:12:30.569Z,22.27
2018-12-30T10:14:45.899Z,17.90
2018-12-30T10:17:00.480Z,13.77
2018-12-30T10:19:15.421Z,21.23
2018-12-30T10:21:30.198Z,12.20
2018-12-30T10:23:44.464Z,23.63
2018-12-30T10:25:59.379Z,16.63
2018-12-30T10:28:13.560Z,24.60
2018-12-30T10:30:28.480Z,27.27
2018-12-30T10:32:43.340Z,16.33
2018-12-30T10:34:57.497Z,29.20
2018-12-30T10:37:12.380Z,24.07
2018-12-30T10:39:27.280Z,18.50
2018-12-30T10:41:42.321Z,14.23
2018-12-30T10:43:57.280Z,33.67
2018-12-30T10:46:12.252Z,17.40
2018-12-30T10:48:27.092Z,27.63
2018-12-30T10:50:42.000Z,13.23
2018-12-30T10:52:56.188Z,22.37
2018-12-30T10:55:11.152Z,13.33
2018-12-30T10:57:26.736Z,25.47
2018-12-30T10:59:41.120Z,20.47
2018-12-30T11:07:16.124Z,20.20
2018-12-30T11:09:30.961Z,20.20
2018-12-30T11:11:45.837Z,13.10
2018-12-30T11:14:00.712Z,18.20
2018-12-30T11:16:15.932Z,13.70
2018-12-30T11:18:30.368Z,21.13
2018-12-30T11:20:45.448Z,21.63
2018-12-30T11:23:00.322Z,15.47
2018-12-30T11:25:15.733Z,8.13
2018-12-30T11:27:30.252Z,16.33
2018-12-30T11:29:46.133Z,16.45
2018-12-30T11:32:00.263Z,27.03
2018-12-30T11:34:15.176Z,20.87
2018-12-30T11:36:30.276Z,19.13
2018-12-30T11:38:45.104Z,19.33
2018-12-30T11:41:00.072Z,12.43
2018-12-30T11:43:14.861Z,27.37
2018-12-30T11:45:28.941Z,15.33
2018-12-30T11:47:43.855Z,20.73
2018-12-30T11:49:58.936Z,16.33
2018-12-30T11:52:13.847Z,15.73
2018-12-30T11:54:28.800Z,28.63
2018-12-30T11:56:43.793Z,22.77
2018-12-30T11:58:58.836Z,28.60
2018-12-30T12:01:13.944Z,21.37
2018-12-30T12:03:28.872Z,13.50
2018-12-30T12:05:43.925Z,23.97
2018-12-30T12:07:58.896Z,20.47
2018-12-30T12:10:13.985Z,22.43
2018-12-30T12:12:28.796Z,22.90
2018-12-30T12:14:43.808Z,14.50
2018-12-30T12:16:58.732Z,19.43
2018-12-30T12:19:13.808Z,23.40
2018-12-30T12:21:28.753Z,13.03
2018-12-30T12:23:44.012Z,23.07
2018-12-30T12:25:58.972Z,22.47
2018-12-30T12:28:13.852Z,14.53
2018-12-30T12:35:55.836Z,23.23
2018-12-30T12:38:10.681Z,18.20
2018-12-30T12:40:25.743Z,13.83
2018-12-30T12:42:40.701Z,26.47
2018-12-30T12:44:55.896Z,13.93
2018-12-30T12:47:10.733Z,13.70
2018-12-30T12:49:25.649Z,28.53
2018-12-30T12:51:40.803Z,12.47
2018-12-30T12:53:55.817Z,21.13
2018-12-30T12:56:10.058Z,16.90
2018-12-30T12:58:25.380Z,26.97
2018-12-30T13:00:40.117Z,20.40
2018-12-30T13:02:55.020Z,25.77
2018-12-30T13:05:10.011Z,13.73
2018-12-30T13:07:24.996Z,19.87
2018-12-30T13:09:39.873Z,29.67
2018-12-30T13:11:55.012Z,19.67
2018-12-30T13:14:09.957Z,16.20
2018-12-30T13:16:24.888Z,22.37
2018-12-30T13:18:39.593Z,23.47
2018-12-30T13:20:54.863Z,13.20
2018-12-30T13:23:09.717Z,18.43
2018-12-30T13:25:24.525Z,14.60
2018-12-30T13:27:39.408Z,24.70
2018-12-30T13:29:54.388Z,27.33
2018-12-30T13:32:09.232Z,19.57
2018-12-30T13:34:24.141Z,26.67
2018-12-30T13:36:39.179Z,16.40
2018-12-30T13:38:54.100Z,24.53
2018-12-30T13:41:09.228Z,19.47
2018-12-30T13:43:24.015Z,16.87
2018-12-30T13:45:39.032Z,21.27
2018-12-30T13:47:53.296Z,25.57
2018-12-30T13:50:08.093Z,18.23
2018-12-30T13:52:23.133Z,19.87
2018-12-30T13:54:37.861Z,29.17
2018-12-30T13:56:52.816Z,16.47
2018-12-30T13:59:07.988Z,23.33
2018-12-30T14:01:22.929Z,18.67
2018-12-30T14:03:38.120Z,22.97
2018-12-30T14:05:52.872Z,20.93
2018-12-30T14:08:07.812Z,15.07
2018-12-30T14:10:22.768Z,14.80
2018-12-30T14:12:37.824Z,16.50
2018-12-30T14:14:53.185Z,24.63
2018-12-30T14:17:07.741Z,19.10
2018-12-30T14:19:22.690Z,23.60
2018-12-30T14:21:37.564Z,18.67
2018-12-30T14:23:52.726Z,17.23
2018-12-30T14:26:07.312Z,16.27
2018-12-30T14:28:22.200Z,17.47
2018-12-30T14:30:37.112Z,15.23
2018-12-30T14:32:51.266Z,21.20
2018-12-30T14:35:06.240Z,21.80
2018-12-30T14:37:20.428Z,16.97
2018-12-30T14:39:35.232Z,11.63
2018-12-30T14:41:49.989Z,14.47
2018-12-30T14:44:05.363Z,23.07
2018-12-30T14:46:19.932Z,14.83
2018-12-30T14:48:34.050Z,26.33
2018-12-30T14:50:48.961Z,13.13
2018-12-30T14:53:03.979Z,12.93
2018-12-30T14:55:18.943Z,14.17
2018-12-30T14:57:33.836Z,28.03
2018-12-30T14:59:48.749Z,20.47
2018-12-30T15:02:03.666Z,13.83
2018-12-30T15:04:18.621Z,21.03
2018-12-30T15:06:33.504Z,15.07
2018-12-30T15:08:48.621Z,14.70
2018-12-30T15:11:03.693Z,19.63
2018-12-30T15:13:18.729Z,21.87
2018-12-30T15:15:33.777Z,23.33
2018-12-30T15:17:48.065Z,21.17
2018-12-30T15:20:02.890Z,20.17
2018-12-30T15:22:17.900Z,19.97
2018-12-30T15:24:32.965Z,21.87
2018-12-30T15:26:47.896Z,25.87
2018-12-30T15:29:02.713Z,14.47
2018-12-30T15:31:17.800Z,12.40
2018-12-30T15:33:32.813Z,19.03
2018-12-30T15:35:47.665Z,20.83
2018-12-30T15:38:02.616Z,13.37
2018-12-30T15:40:17.772Z,25.13
2018-12-30T15:42:32.912Z,16.63
2018-12-30T15:44:47.772Z,19.40
2018-12-30T15:47:02.685Z,20.83
2018-12-30T15:49:17.341Z,14.87
2018-12-30T15:51:32.317Z,22.23
2018-12-30T15:53:47.345Z,21.73
2018-12-30T15:56:02.269Z,14.37
2018-12-30T15:58:17.096Z,24.07
2018-12-30T16:00:32.376Z,15.93
2018-12-30T16:02:47.089Z,16.70
2018-12-30T16:05:02.082Z,17.67
2018-12-30T16:07:16.854Z,16.53
2018-12-30T16:12:19.016Z,21.07
2018-12-30T16:14:33.461Z,33.03
2018-12-30T16:16:48.399Z,17.27
2018-12-30T16:19:03.360Z,13.30
2018-12-30T16:21:17.977Z,15.60
2018-12-30T16:23:32.894Z,20.23
2018-12-30T16:25:47.745Z,21.00
2018-12-30T16:28:02.770Z,15.90
2018-12-30T16:30:17.514Z,21.87
2018-12-30T16:32:32.449Z,16.23
2018-12-30T16:34:47.589Z,19.23
2018-12-30T16:37:02.448Z,8.30
2018-12-30T16:39:17.456Z,19.60
2018-12-30T16:41:32.325Z,18.63
2018-12-30T16:43:47.604Z,9.60
2018-12-30T16:46:02.497Z,11.37
2018-12-30T16:48:17.224Z,23.17
2018-12-30T16:50:32.347Z,13.37
2018-12-30T16:52:47.180Z,10.27
2018-12-30T16:55:02.249Z,18.37
2018-12-30T16:57:17.125Z,14.63
2018-12-30T16:59:32.084Z,14.40
2018-12-30T17:01:46.897Z,15.47
2018-12-30T17:04:02.028Z,13.53
2018-12-30T17:06:16.986Z,20.93
2018-12-30T17:08:32.024Z,18.83
2018-12-30T17:10:46.788Z,26.37
2018-12-30T17:13:02.016Z,24.10
2018-12-30T17:15:16.684Z,22.03
2018-12-30T17:17:31.677Z,17.20
2018-12-30T17:19:46.684Z,20.00
2018-12-30T17:22:01.565Z,22.43
2018-12-30T17:24:16.552Z,14.40
2018-12-30T17:26:31.587Z,19.40
2018-12-30T17:28:46.737Z,25.87
2018-12-30T17:31:01.524Z,25.53
2018-12-30T17:33:16.510Z,19.37
2018-12-30T17:35:31.232Z,21.30
2018-12-30T17:37:46.173Z,17.83
2018-12-30T17:40:01.095Z,18.33
2018-12-30T17:42:16.049Z,25.00
2018-12-30T17:44:30.983Z,20.00
2018-12-30T17:46:46.117Z,18.60
2018-12-30T17:49:00.853Z,24.90
2018-12-30T17:51:15.761Z,17.20
2018-12-30T17:53:30.617Z,14.87
2018-12-30T17:55:50.823Z,16.13
2018-12-30T17:58:01.744Z,19.20
2018-12-30T18:00:17.052Z,20.63
2018-12-30T18:02:31.695Z,17.97
2018-12-30T18:04:46.800Z,21.77
2018-12-30T18:07:02.084Z,23.40
2018-12-30T18:09:17.100Z,14.67
2018-12-30T18:11:31.873Z,23.00
2018-12-30T18:13:46.980Z,12.73
2018-12-30T18:16:01.668Z,23.57
2018-12-30T18:18:16.068Z,13.47
2018-12-30T18:20:30.731Z,27.73
2018-12-30T18:22:45.472Z,18.50
2018-12-30T18:25:00.453Z,8.83
2018-12-30T18:27:15.684Z,21.13
2018-12-30T18:29:30.228Z,17.47
2018-12-30T18:31:45.288Z,8.80
2018-12-30T18:34:00.088Z,17.90
2018-12-30T18:36:15.117Z,18.30
2018-12-30T18:38:30.065Z,19.17
2018-12-30T18:40:45.129Z,14.43
2018-12-30T18:42:59.764Z,17.73
2018-12-30T18:45:14.884Z,11.67
2018-12-30T18:47:29.544Z,29.07
2018-12-30T18:49:44.509Z,9.93
2018-12-30T18:51:59.477Z,16.30
2018-12-30T18:54:14.424Z,17.43
2018-12-30T18:56:29.228Z,20.50
2018-12-30T18:58:44.028Z,19.60
2018-12-30T19:00:58.145Z,21.30
2018-12-30T19:03:13.280Z,19.33
2018-12-30T19:05:27.998Z,29.17
2018-12-30T19:07:43.048Z,25.27
2018-12-30T19:09:58.142Z,31.37
2018-12-30T19:12:13.153Z,21.80
2018-12-30T19:14:28.388Z,19.43
2018-12-30T19:16:43.327Z,26.50
2018-12-30T19:18:58.088Z,17.77
2018-12-30T19:21:12.260Z,11.90
2018-12-30T19:23:27.232Z,16.97
2018-12-30T19:25:41.912Z,26.93
2018-12-30T19:27:56.934Z,16.27
2018-12-30T19:30:11.924Z,20.37
2018-12-30T19:32:26.908Z,23.73
2018-12-30T19:34:41.788Z,32.57
2018-12-30T19:36:57.090Z,15.03
2018-12-30T19:39:11.768Z,12.87
2018-12-30T19:41:26.897Z,25.53
2018-12-30T19:43:43.112Z,16.93
2018-12-30T19:45:57.832Z,18.47
2018-12-30T19:48:12.825Z,21.57
2018-12-30T19:50:27.744Z,20.70
2018-12-30T19:52:42.556Z,22.07
2018-12-30T19:54:56.701Z,29.83
2018-12-30T19:57:11.638Z,19.73
2018-12-30T19:59:26.733Z,24.83
2018-12-30T20:01:41.527Z,12.97
2018-12-30T20:03:56.561Z,16.90
2018-12-30T20:06:11.387Z,19.33
2018-12-30T20:08:26.436Z,15.07
2018-12-30T20:10:41.596Z,18.47
2018-12-30T20:12:57.804Z,14.63
2018-12-30T20:15:12.554Z,33.77
2018-12-30T20:17:27.893Z,18.03
2018-12-30T20:19:42.941Z,16.77
2018-12-30T20:21:57.388Z,20.53
2018-12-30T20:24:12.642Z,16.20
2018-12-30T20:26:30.070Z,19.20
2018-12-30T20:28:44.333Z,23.20
2018-12-30T20:30:59.378Z,18.43
2018-12-30T20:33:14.284Z,19.30
2018-12-30T20:35:28.748Z,26.87
2018-12-30T20:37:43.494Z,18.37
2018-12-30T20:39:58.556Z,23.73
2018-12-30T20:42:13.268Z,28.67
2018-12-30T20:44:28.244Z,21.90
2018-12-30T20:46:43.108Z,19.80
2018-12-30T20:48:58.056Z,35.53
2018-12-30T20:51:12.872Z,20.47
2018-12-30T20:53:26.980Z,27.10
2018-12-30T20:55:41.880Z,28.03
2018-12-30T20:57:57.104Z,18.10
2018-12-30T21:00:11.904Z,19.53
2018-12-30T21:02:26.660Z,27.33
2018-12-30T21:04:41.485Z,22.23
2018-12-30T21:06:56.320Z,33.03
2018-12-30T21:09:11.402Z,18.70
2018-12-30T21:11:26.316Z,25.00
2018-12-30T21:13:41.169Z,28.93
2018-12-30T21:15:55.936Z,20.87
2018-12-30T21:18:11.061Z,28.73
2018-12-30T21:20:25.644Z,23.97
2018-12-30T21:22:40.740Z,30.40
2018-12-30T21:24:55.480Z,19.87
2018-12-30T21:27:09.601Z,18.60
2018-12-30T21:29:24.636Z,30.20
2018-12-30T21:31:39.560Z,18.90
2018-12-30T21:33:54.524Z,25.47
2018-12-30T21:36:09.872Z,25.30
2018-12-30T21:41:11.928Z,23.47
2018-12-30T21:43:27.137Z,40.03
2018-12-30T21:45:42.073Z,27.87
2018-12-30T21:47:56.841Z,21.80
2018-12-30T21:50:11.829Z,36.07
2018-12-30T21:52:26.717Z,40.67
2018-12-30T21:54:41.832Z,28.60
2018-12-30T21:56:56.533Z,27.67
2018-12-30T21:59:11.581Z,36.23
2018-12-30T22:01:26.636Z,26.57
2018-12-30T22:03:41.661Z,36.10
2018-12-30T22:05:56.560Z,23.27
2018-12-30T22:08:11.193Z,26.50
2018-12-30T22:10:26.069Z,24.10
2018-12-30T22:12:41.229Z,29.97
2018-12-30T22:14:56.235Z,32.43
2018-12-30T22:17:10.576Z,31.93
2018-12-30T22:19:25.410Z,29.93
2018-12-30T22:21:40.577Z,39.93
2018-12-30T22:23:55.519Z,30.80
2018-12-30T22:26:10.513Z,26.90
2018-12-30T22:28:24.609Z,27.47
2018-12-30T22:30:39.572Z,35.80
2018-12-30T22:32:54.420Z,29.97
2018-12-30T22:35:09.381Z,32.77
2018-12-30T22:37:24.484Z,22.77
2018-12-30T22:39:39.720Z,34.60
2018-12-30T22:41:54.469Z,37.23
2018-12-30T22:44:09.412Z,30.20
2018-12-30T22:46:24.564Z,44.03
2018-12-30T22:48:39.614Z,41.73
2018-12-30T22:50:54.396Z,39.63
2018-12-30T22:53:09.481Z,46.03
2018-12-30T22:55:24.448Z,42.83
2018-12-30T22:57:39.448Z,49.53
2018-12-30T22:59:54.175Z,55.43
2018-12-30T23:02:08.345Z,40.17
2018-12-30T23:04:23.296Z,45.17
2018-12-30T23:06:37.456Z,43.77
2018-12-30T23:08:52.468Z,40.70
2018-12-30T23:11:07.324Z,46.40
2018-12-30T23:13:22.228Z,55.10
2018-12-30T23:15:36.373Z,49.17
2018-12-30T23:17:51.284Z,43.67
2018-12-30T23:20:06.180Z,51.57
2018-12-30T23:22:21.240Z,41.40
2018-12-30T23:24:35.484Z,42.77
2018-12-30T23:26:50.504Z,39.23
2018-12-30T23:29:05.517Z,42.10
2018-12-30T23:31:20.261Z,37.83
2018-12-30T23:33:35.234Z,43.30
2018-12-30T23:35:50.178Z,45.33
2018-12-30T23:38:05.036Z,31.10
2018-12-30T23:40:19.948Z,38.47
2018-12-30T23:42:34.995Z,41.37
2018-12-30T23:44:49.964Z,46.57
2018-12-30T23:47:04.905Z,34.77
2018-12-30T23:49:19.913Z,35.90
2018-12-30T23:56:55.444Z,36.90
2018-12-30T23:59:10.271Z,36.57
